sensor_id;sensor_type;location;lat;lon;timestamp;pressure;altitude;pressure_sealevel;temperature;humidity
72959;BME280;60008;50.826;6.896;2023-05-25T00:02:08;101875.31;;;9.30;100.00
72959;BME280;60008;50.826;6.896;2023-05-25T00:05:00;101880.13;;;9.25;100.00
72959;BME280;60008;50.826;6.896;2023-05-25T00:07:53;101890.00;;;9.23;100.00
72959;BME280;60008;50.826;6.896;2023-05-25T00:10:39;101888.00;;;9.15;100.00
72959;BME280;60008;50.826;6.896;2023-05-25T00:13:30;101897.13;;;9.11;100.00
72959;BME280;60008;50.826;6.896;2023-05-25T00:16:21;101896.03;;;9.14;100.00
72959;BME280;60008;50.826;6.896;2023-05-25T00:19:14;101888.94;;;9.14;100.00
72959;BME280;60008;50.826;6.896;2023-05-25T00:22:05;101882.34;;;9.09;100.00
72959;BME280;60008;50.826;6.896;2023-05-25T00:24:57;101886.22;;;9.05;100.00
72959;BME280;60008;50.826;6.896;2023-05-25T00:27:42;101882.25;;;8.99;100.00
72959;BME280;60008;50.826;6.896;2023-05-25T00:30:33;101886.94;;;8.95;100.00
72959;BME280;60008;50.826;6.896;2023-05-25T00:33:25;101880.19;;;8.91;100.00
72959;BME280;60008;50.826;6.896;2023-05-25T00:36:10;101879.97;;;8.83;100.00
72959;BME280;60008;50.826;6.896;2023-05-25T00:39:02;101883.22;;;8.76;100.00
72959;BME280;60008;50.826;6.896;2023-05-25T00:41:48;101876.84;;;8.67;100.00
72959;BME280;60008;50.826;6.896;2023-05-25T00:44:41;101885.00;;;8.75;100.00
72959;BME280;60008;50.826;6.896;2023-05-25T00:47:26;101879.97;;;8.83;100.00
72959;BME280;60008;50.826;6.896;2023-05-25T00:50:22;101879.84;;;8.85;100.00
72959;BME280;60008;50.826;6.896;2023-05-25T00:53:20;101873.72;;;8.73;100.00
72959;BME280;60008;50.826;6.896;2023-05-25T00:56:22;101881.56;;;8.64;100.00
72959;BME280;60008;50.826;6.896;2023-05-25T00:59:17;101888.50;;;8.54;100.00
72959;BME280;60008;50.826;6.896;2023-05-25T01:02:07;101906.88;;;8.55;100.00
72959;BME280;60008;50.826;6.896;2023-05-25T01:05:01;101895.91;;;8.37;100.00
72959;BME280;60008;50.826;6.896;2023-05-25T01:07:55;101901.13;;;8.50;100.00
72959;BME280;60008;50.826;6.896;2023-05-25T01:10:43;101894.13;;;8.49;100.00
72959;BME280;60008;50.826;6.896;2023-05-25T01:13:37;101897.72;;;8.48;100.00
72959;BME280;60008;50.826;6.896;2023-05-25T01:16:23;101892.69;;;8.34;100.00
72959;BME280;60008;50.826;6.896;2023-05-25T01:19:15;101897.13;;;8.33;100.00
72959;BME280;60008;50.826;6.896;2023-05-25T01:22:13;101892.34;;;8.38;100.00
72959;BME280;60008;50.826;6.896;2023-05-25T01:25:34;101900.34;;;8.37;100.00
72959;BME280;60008;50.826;6.896;2023-05-25T01:28:29;101904.69;;;8.38;100.00
72959;BME280;60008;50.826;6.896;2023-05-25T01:31:19;101908.03;;;8.29;100.00
72959;BME280;60008;50.826;6.896;2023-05-25T01:34:12;101905.16;;;8.32;100.00
72959;BME280;60008;50.826;6.896;2023-05-25T01:36:59;101908.03;;;8.29;100.00
72959;BME280;60008;50.826;6.896;2023-05-25T01:39:50;101899.06;;;8.31;100.00
72959;BME280;60008;50.826;6.896;2023-05-25T01:42:35;101897.66;;;8.15;100.00
72959;BME280;60008;50.826;6.896;2023-05-25T01:45:27;101908.59;;;8.21;100.00
72959;BME280;60008;50.826;6.896;2023-05-25T01:48:39;101896.94;;;8.24;100.00
72959;BME280;60008;50.826;6.896;2023-05-25T01:51:54;101898.03;;;8.21;100.00
72959;BME280;60008;50.826;6.896;2023-05-25T01:54:58;101900.38;;;8.02;100.00
72959;BME280;60008;50.826;6.896;2023-05-25T01:57:48;101901.81;;;7.95;100.00
72959;BME280;60008;50.826;6.896;2023-05-25T02:00:41;101906.47;;;7.92;100.00
72959;BME280;60008;50.826;6.896;2023-05-25T02:03:32;101909.31;;;7.89;100.00
72959;BME280;60008;50.826;6.896;2023-05-25T02:06:18;101899.25;;;7.94;100.00
72959;BME280;60008;50.826;6.896;2023-05-25T02:09:09;101909.38;;;8.00;100.00
72959;BME280;60008;50.826;6.896;2023-05-25T02:11:54;101905.44;;;8.05;100.00
72959;BME280;60008;50.826;6.896;2023-05-25T02:14:46;101907.56;;;8.00;100.00
72959;BME280;60008;50.826;6.896;2023-05-25T02:17:32;101903.94;;;7.90;100.00
72959;BME280;60008;50.826;6.896;2023-05-25T02:20:31;101899.53;;;7.91;100.00
72959;BME280;60008;50.826;6.896;2023-05-25T02:23:29;101901.66;;;7.97;100.00
72959;BME280;60008;50.826;6.896;2023-05-25T02:26:21;101899.84;;;7.86;100.00
72959;BME280;60008;50.826;6.896;2023-05-25T02:29:12;101894.56;;;7.86;100.00
72959;BME280;60008;50.826;6.896;2023-05-25T02:32:03;101896.53;;;7.95;100.00
72959;BME280;60008;50.826;6.896;2023-05-25T02:34:55;101902.22;;;7.78;100.00
72959;BME280;60008;50.826;6.896;2023-05-25T02:37:46;101903.72;;;7.69;100.00
72959;BME280;60008;50.826;6.896;2023-05-25T02:40:35;101903.28;;;7.75;100.00
72959;BME280;60008;50.826;6.896;2023-05-25T02:43:26;101900.38;;;7.67;100.00
72959;BME280;60008;50.826;6.896;2023-05-25T02:46:18;101908.06;;;7.70;100.00
72959;BME280;60008;50.826;6.896;2023-05-25T02:49:03;101911.41;;;7.72;100.00
72959;BME280;60008;50.826;6.896;2023-05-25T02:51:54;101911.41;;;7.72;100.00
72959;BME280;60008;50.826;6.896;2023-05-25T02:54:40;101905.44;;;7.70;100.00
72959;BME280;60008;50.826;6.896;2023-05-25T02:57:31;101911.81;;;7.79;100.00
72959;BME280;60008;50.826;6.896;2023-05-25T03:00:16;101923.81;;;7.83;100.00
72959;BME280;60008;50.826;6.896;2023-05-25T03:03:07;101915.09;;;7.83;100.00
72959;BME280;60008;50.826;6.896;2023-05-25T03:05:53;101917.72;;;7.83;100.00
72959;BME280;60008;50.826;6.896;2023-05-25T03:08:45;101910.56;;;7.72;100.00
72959;BME280;60008;50.826;6.896;2023-05-25T03:11:36;101911.31;;;7.74;100.00
72959;BME280;60008;50.826;6.896;2023-05-25T03:14:28;101923.66;;;7.73;100.00
72959;BME280;60008;50.826;6.896;2023-05-25T03:17:13;101923.44;;;7.76;100.00
72959;BME280;60008;50.826;6.896;2023-05-25T03:20:11;101924.03;;;7.80;100.00
72959;BME280;60008;50.826;6.896;2023-05-25T03:23:10;101930.56;;;7.87;100.00
72959;BME280;60008;50.826;6.896;2023-05-25T03:26:01;101927.31;;;7.84;100.00
72959;BME280;60008;50.826;6.896;2023-05-25T03:28:46;101936.66;;;7.76;100.00
72959;BME280;60008;50.826;6.896;2023-05-25T03:31:37;101935.78;;;7.76;100.00
72959;BME280;60008;50.826;6.896;2023-05-25T03:34:22;101939.28;;;7.76;100.00
72959;BME280;60008;50.826;6.896;2023-05-25T03:37:14;101937.38;;;7.78;100.00
72959;BME280;60008;50.826;6.896;2023-05-25T03:39:59;101937.72;;;7.74;100.00
72959;BME280;60008;50.826;6.896;2023-05-25T03:42:50;101934.94;;;7.75;100.00
72959;BME280;60008;50.826;6.896;2023-05-25T03:45:41;101938.09;;;7.80;100.00
72959;BME280;60008;50.826;6.896;2023-05-25T03:48:32;101951.91;;;7.84;100.00
72959;BME280;60008;50.826;6.896;2023-05-25T03:51:17;101947.56;;;7.83;100.00
72959;BME280;60008;50.826;6.896;2023-05-25T03:54:09;101943.94;;;7.73;100.00
72959;BME280;60008;50.826;6.896;2023-05-25T03:56:54;101946.50;;;7.62;100.00
72959;BME280;60008;50.826;6.896;2023-05-25T03:59:46;101961.34;;;7.52;100.00
72959;BME280;60008;50.826;6.896;2023-05-25T04:02:37;101956.56;;;7.57;100.00
72959;BME280;60008;50.826;6.896;2023-05-25T04:05:29;101971.22;;;7.61;100.00
72959;BME280;60008;50.826;6.896;2023-05-25T04:08:15;101969.38;;;7.74;100.00
72959;BME280;60008;50.826;6.896;2023-05-25T04:11:08;101974.66;;;7.74;100.00
72959;BME280;60008;50.826;6.896;2023-05-25T04:13:53;101974.81;;;7.84;100.00
72959;BME280;60008;50.826;6.896;2023-05-25T04:16:44;101972.41;;;7.80;100.00
72959;BME280;60008;50.826;6.896;2023-05-25T04:19:30;101975.22;;;7.90;100.00
72959;BME280;60008;50.826;6.896;2023-05-25T04:22:28;101982.69;;;7.96;100.00
72959;BME280;60008;50.826;6.896;2023-05-25T04:25:12;101986.16;;;7.97;100.00
72959;BME280;60008;50.826;6.896;2023-05-25T04:28:04;101993.53;;;8.04;100.00
72959;BME280;60008;50.826;6.896;2023-05-25T04:30:51;101999.66;;;8.16;100.00
72959;BME280;60008;50.826;6.896;2023-05-25T04:33:46;101997.94;;;8.27;100.00
72959;BME280;60008;50.826;6.896;2023-05-25T04:36:31;102005.06;;;8.38;100.00
72959;BME280;60008;50.826;6.896;2023-05-25T04:39:22;102009.03;;;8.44;100.00
72959;BME280;60008;50.826;6.896;2023-05-25T04:42:13;102004.03;;;8.52;100.00
72959;BME280;60008;50.826;6.896;2023-05-25T04:45:06;102005.97;;;8.61;100.00
72959;BME280;60008;50.826;6.896;2023-05-25T04:47:55;101998.31;;;8.69;100.00
72959;BME280;60008;50.826;6.896;2023-05-25T04:50:49;102004.69;;;8.77;100.00
72959;BME280;60008;50.826;6.896;2023-05-25T04:53:40;101996.41;;;8.82;100.00
72959;BME280;60008;50.826;6.896;2023-05-25T04:56:32;102004.59;;;8.90;100.00
72959;BME280;60008;50.826;6.896;2023-05-25T04:59:23;101998.81;;;8.96;100.00
72959;BME280;60008;50.826;6.896;2023-05-25T05:02:08;102003.38;;;9.05;100.00
72959;BME280;60008;50.826;6.896;2023-05-25T05:04:59;102007.72;;;9.17;100.00
72959;BME280;60008;50.826;6.896;2023-05-25T05:07:50;102013.13;;;9.27;100.00
72959;BME280;60008;50.826;6.896;2023-05-25T05:10:42;102005.16;;;9.38;100.00
72959;BME280;60008;50.826;6.896;2023-05-25T05:13:33;101994.72;;;9.47;100.00
72959;BME280;60008;50.826;6.896;2023-05-25T05:16:24;101997.59;;;9.55;100.00
72959;BME280;60008;50.826;6.896;2023-05-25T05:19:16;101994.56;;;9.60;100.00
72959;BME280;60008;50.826;6.896;2023-05-25T05:22:08;102002.97;;;9.65;100.00
72959;BME280;60008;50.826;6.896;2023-05-25T05:25:06;101996.69;;;9.77;100.00
72959;BME280;60008;50.826;6.896;2023-05-25T05:27:57;101994.47;;;9.93;100.00
72959;BME280;60008;50.826;6.896;2023-05-25T05:30:48;102004.31;;;10.02;100.00
72959;BME280;60008;50.826;6.896;2023-05-25T05:33:39;102000.91;;;10.11;100.00
72959;BME280;60008;50.826;6.896;2023-05-25T05:36:24;102001.34;;;10.28;100.00
72959;BME280;60008;50.826;6.896;2023-05-25T05:39:28;102004.09;;;10.37;100.00
72959;BME280;60008;50.826;6.896;2023-05-25T05:42:13;102003.19;;;10.27;100.00
72959;BME280;60008;50.826;6.896;2023-05-25T05:45:05;102010.78;;;10.41;100.00
72959;BME280;60008;50.826;6.896;2023-05-25T05:47:56;102003.19;;;10.48;100.00
72959;BME280;60008;50.826;6.896;2023-05-25T05:50:47;102000.31;;;10.60;100.00
72959;BME280;60008;50.826;6.896;2023-05-25T05:53:32;102007.25;;;10.72;100.00
72959;BME280;60008;50.826;6.896;2023-05-25T05:56:25;101998.13;;;10.86;100.00
72959;BME280;60008;50.826;6.896;2023-05-25T05:59:10;102016.34;;;10.80;100.00
72959;BME280;60008;50.826;6.896;2023-05-25T06:02:01;102012.22;;;10.87;100.00
72959;BME280;60008;50.826;6.896;2023-05-25T06:04:46;102014.31;;;10.93;100.00
72959;BME280;60008;50.826;6.896;2023-05-25T06:07:39;102016.66;;;11.07;100.00
72959;BME280;60008;50.826;6.896;2023-05-25T06:10:24;102018.94;;;11.21;100.00
72959;BME280;60008;50.826;6.896;2023-05-25T06:13:15;102021.84;;;11.08;100.00
72959;BME280;60008;50.826;6.896;2023-05-25T06:16:00;102019.53;;;11.24;100.00
72959;BME280;60008;50.826;6.896;2023-05-25T06:18:51;102022.53;;;11.41;100.00
72959;BME280;60008;50.826;6.896;2023-05-25T06:21:36;102017.81;;;11.54;100.00
72959;BME280;60008;50.826;6.896;2023-05-25T06:24:27;102022.69;;;11.49;100.00
72959;BME280;60008;50.826;6.896;2023-05-25T06:27:26;102023.22;;;11.73;100.00
72959;BME280;60008;50.826;6.896;2023-05-25T06:30:17;102023.50;;;11.89;100.00
72959;BME280;60008;50.826;6.896;2023-05-25T06:33:02;102013.16;;;11.86;100.00
72959;BME280;60008;50.826;6.896;2023-05-25T06:35:53;102017.53;;;12.06;100.00
72959;BME280;60008;50.826;6.896;2023-05-25T06:38:42;102012.50;;;12.22;100.00
72959;BME280;60008;50.826;6.896;2023-05-25T06:41:33;102019.63;;;12.22;100.00
72959;BME280;60008;50.826;6.896;2023-05-25T06:44:24;102016.69;;;12.34;100.00
72959;BME280;60008;50.826;6.896;2023-05-25T06:47:15;102021.56;;;12.29;100.00
72959;BME280;60008;50.826;6.896;2023-05-25T06:50:00;102021.72;;;12.37;100.00
72959;BME280;60008;50.826;6.896;2023-05-25T06:52:52;102021.69;;;12.57;100.00
72959;BME280;60008;50.826;6.896;2023-05-25T06:55:36;102024.66;;;12.63;100.00
72959;BME280;60008;50.826;6.896;2023-05-25T06:58:29;102035.25;;;12.73;100.00
72959;BME280;60008;50.826;6.896;2023-05-25T07:01:14;102038.19;;;12.79;100.00
72959;BME280;60008;50.826;6.896;2023-05-25T07:04:05;102023.31;;;12.96;100.00
72959;BME280;60008;50.826;6.896;2023-05-25T07:06:50;102030.34;;;12.78;100.00
72959;BME280;60008;50.826;6.896;2023-05-25T07:09:42;102031.06;;;12.70;100.00
72959;BME280;60008;50.826;6.896;2023-05-25T07:12:34;102031.03;;;12.89;100.00
72959;BME280;60008;50.826;6.896;2023-05-25T07:15:18;102028.56;;;13.25;100.00
72959;BME280;60008;50.826;6.896;2023-05-25T07:18:12;102025.31;;;13.31;100.00
72959;BME280;60008;50.826;6.896;2023-05-25T07:20:57;102020.69;;;13.60;100.00
72959;BME280;60008;50.826;6.896;2023-05-25T07:23:56;102019.94;;;13.67;100.00
72959;BME280;60008;50.826;6.896;2023-05-25T07:26:41;102021.63;;;13.68;100.00
72959;BME280;60008;50.826;6.896;2023-05-25T07:29:34;102029.91;;;13.65;100.00
72959;BME280;60008;50.826;6.896;2023-05-25T07:32:19;102028.19;;;13.92;100.00
72959;BME280;60008;50.826;6.896;2023-05-25T07:35:10;102014.97;;;14.17;100.00
72959;BME280;60008;50.826;6.896;2023-05-25T07:38:03;102019.09;;;14.47;100.00
72959;BME280;60008;50.826;6.896;2023-05-25T07:40:48;102015.75;;;16.87;100.00
72959;BME280;60008;50.826;6.896;2023-05-25T07:43:40;102014.19;;;18.77;100.00
72959;BME280;60008;50.826;6.896;2023-05-25T07:46:25;102017.72;;;17.87;100.00
72959;BME280;60008;50.826;6.896;2023-05-25T07:49:16;102016.94;;;19.86;98.58
72959;BME280;60008;50.826;6.896;2023-05-25T07:52:01;102008.09;;;21.45;82.67
72959;BME280;60008;50.826;6.896;2023-05-25T07:54:54;102012.34;;;21.26;78.53
72959;BME280;60008;50.826;6.896;2023-05-25T07:57:39;102017.47;;;21.49;80.89
72959;BME280;60008;50.826;6.896;2023-05-25T08:00:30;102008.19;;;20.68;80.24
72959;BME280;60008;50.826;6.896;2023-05-25T08:03:21;102007.75;;;21.14;87.96
72959;BME280;60008;50.826;6.896;2023-05-25T08:06:32;101996.22;;;21.93;75.43
72959;BME280;60008;50.826;6.896;2023-05-25T08:09:17;102015.22;;;19.49;93.14
72959;BME280;60008;50.826;6.896;2023-05-25T08:12:08;102004.56;;;20.76;82.07
72959;BME280;60008;50.826;6.896;2023-05-25T08:14:56;102010.25;;;19.02;90.12
72959;BME280;60008;50.826;6.896;2023-05-25T08:17:47;102001.22;;;20.46;92.16
72959;BME280;60008;50.826;6.896;2023-05-25T08:20:34;101998.56;;;20.53;85.20
72959;BME280;60008;50.826;6.896;2023-05-25T08:23:26;101999.22;;;19.26;95.97
72959;BME280;60008;50.826;6.896;2023-05-25T08:26:17;101990.69;;;22.80;69.14
72959;BME280;60008;50.826;6.896;2023-05-25T08:29:28;101995.00;;;21.42;77.08
72959;BME280;60008;50.826;6.896;2023-05-25T08:32:13;101991.06;;;23.67;64.33
72959;BME280;60008;50.826;6.896;2023-05-25T08:35:05;101999.78;;;22.07;71.39
72959;BME280;60008;50.826;6.896;2023-05-25T08:37:57;101997.34;;;22.84;70.43
72959;BME280;60008;50.826;6.896;2023-05-25T08:40:42;101989.19;;;24.37;61.28
72959;BME280;60008;50.826;6.896;2023-05-25T08:43:35;101992.66;;;23.82;59.98
72959;BME280;60008;50.826;6.896;2023-05-25T08:46:28;101998.97;;;23.05;63.72
72959;BME280;60008;50.826;6.896;2023-05-25T08:49:21;101990.38;;;23.79;58.31
72959;BME280;60008;50.826;6.896;2023-05-25T08:52:13;101988.81;;;23.96;58.06
72959;BME280;60008;50.826;6.896;2023-05-25T08:55:05;101986.97;;;25.68;51.90
72959;BME280;60008;50.826;6.896;2023-05-25T08:58:08;101984.03;;;22.37;54.56
72959;BME280;60008;50.826;6.896;2023-05-25T09:01:03;101995.44;;;23.04;64.62
72959;BME280;60008;50.826;6.896;2023-05-25T09:03:58;101985.75;;;24.48;54.65
72959;BME280;60008;50.826;6.896;2023-05-25T09:06:44;101986.69;;;23.66;57.89
72959;BME280;60008;50.826;6.896;2023-05-25T09:09:38;101990.84;;;23.11;58.86
72959;BME280;60008;50.826;6.896;2023-05-25T09:12:24;101978.22;;;24.50;51.50
72959;BME280;60008;50.826;6.896;2023-05-25T09:15:15;101989.09;;;20.63;80.49
72959;BME280;60008;50.826;6.896;2023-05-25T09:18:01;101996.09;;;18.71;92.16
72959;BME280;60008;50.826;6.896;2023-05-25T09:21:02;102005.63;;;17.52;100.00
72959;BME280;60008;50.826;6.896;2023-05-25T09:24:00;102001.81;;;17.85;100.00
72959;BME280;60008;50.826;6.896;2023-05-25T09:26:52;101999.84;;;18.47;97.12
72959;BME280;60008;50.826;6.896;2023-05-25T09:29:49;102004.31;;;18.32;98.12
72959;BME280;60008;50.826;6.896;2023-05-25T09:32:34;101999.44;;;17.90;100.00
72959;BME280;60008;50.826;6.896;2023-05-25T09:35:26;101997.59;;;18.73;98.33
72959;BME280;60008;50.826;6.896;2023-05-25T09:38:12;101988.97;;;21.94;81.14
72959;BME280;60008;50.826;6.896;2023-05-25T09:41:05;101996.09;;;21.61;75.68
72959;BME280;60008;50.826;6.896;2023-05-25T09:43:50;101982.97;;;22.97;74.17
72959;BME280;60008;50.826;6.896;2023-05-25T09:46:54;101995.53;;;20.20;81.22
72959;BME280;60008;50.826;6.896;2023-05-25T09:49:40;101998.00;;;18.25;96.44
72959;BME280;60008;50.826;6.896;2023-05-25T09:52:32;101997.25;;;19.35;91.93
72959;BME280;60008;50.826;6.896;2023-05-25T09:55:17;101994.69;;;20.62;82.80
72959;BME280;60008;50.826;6.896;2023-05-25T09:58:09;101991.94;;;23.99;66.03
72959;BME280;60008;50.826;6.896;2023-05-25T10:01:00;101989.81;;;23.06;60.24
72959;BME280;60008;50.826;6.896;2023-05-25T10:03:51;101991.69;;;20.50;85.64
72959;BME280;60008;50.826;6.896;2023-05-25T10:06:50;101990.88;;;22.26;76.32
72959;BME280;60008;50.826;6.896;2023-05-25T10:09:44;101990.16;;;23.29;63.81
72959;BME280;60008;50.826;6.896;2023-05-25T10:12:29;101990.69;;;22.41;70.63
72959;BME280;60008;50.826;6.896;2023-05-25T10:15:22;101996.13;;;22.67;65.08
72959;BME280;60008;50.826;6.896;2023-05-25T10:18:08;101996.94;;;19.95;79.13
72959;BME280;60008;50.826;6.896;2023-05-25T10:21:06;102001.31;;;19.16;88.42
72959;BME280;60008;50.826;6.896;2023-05-25T10:24:13;101991.97;;;21.17;75.16
72959;BME280;60008;50.826;6.896;2023-05-25T10:27:13;101990.06;;;22.32;71.59
72959;BME280;60008;50.826;6.896;2023-05-25T10:30:13;101995.00;;;23.14;62.19
72959;BME280;60008;50.826;6.896;2023-05-25T10:33:05;101983.28;;;23.33;68.05
72959;BME280;60008;50.826;6.896;2023-05-25T10:35:51;101989.53;;;23.27;60.95
72959;BME280;60008;50.826;6.896;2023-05-25T10:38:54;101981.91;;;22.00;68.62
72959;BME280;60008;50.826;6.896;2023-05-25T10:41:46;101984.41;;;20.02;80.62
72959;BME280;60008;50.826;6.896;2023-05-25T10:44:40;101989.03;;;19.72;85.73
72959;BME280;60008;50.826;6.896;2023-05-25T10:47:33;101984.91;;;21.64;76.88
72959;BME280;60008;50.826;6.896;2023-05-25T10:50:26;101983.88;;;21.65;70.95
72959;BME280;60008;50.826;6.896;2023-05-25T10:53:19;101980.28;;;20.48;83.08
72959;BME280;60008;50.826;6.896;2023-05-25T10:56:06;101978.16;;;20.44;80.95
72959;BME280;60008;50.826;6.896;2023-05-25T10:58:58;101977.75;;;20.40;79.64
72959;BME280;60008;50.826;6.896;2023-05-25T11:01:50;101969.22;;;20.92;86.58
72959;BME280;60008;50.826;6.896;2023-05-25T11:04:42;101985.56;;;21.18;81.99
72959;BME280;60008;50.826;6.896;2023-05-25T11:11:05;101976.00;;;21.63;79.19
72959;BME280;60008;50.826;6.896;2023-05-25T11:14:00;101974.66;;;20.01;91.55
72959;BME280;60008;50.826;6.896;2023-05-25T11:17:12;101976.72;;;19.63;94.38
72959;BME280;60008;50.826;6.896;2023-05-25T11:19:58;101977.88;;;19.54;92.43
72959;BME280;60008;50.826;6.896;2023-05-25T11:23:22;101976.69;;;19.78;86.31
72959;BME280;60008;50.826;6.896;2023-05-25T11:26:19;101975.50;;;18.86;97.05
72959;BME280;60008;50.826;6.896;2023-05-25T11:29:12;101973.28;;;19.90;93.67
72959;BME280;60008;50.826;6.896;2023-05-25T11:32:04;101969.56;;;20.27;91.61
72959;BME280;60008;50.826;6.896;2023-05-25T11:34:56;101976.50;;;19.29;95.47
72959;BME280;60008;50.826;6.896;2023-05-25T11:37:48;101971.00;;;19.22;94.13
72959;BME280;60008;50.826;6.896;2023-05-25T11:40:40;101975.00;;;19.26;93.56
72959;BME280;60008;50.826;6.896;2023-05-25T11:43:25;101961.31;;;20.14;91.18
72959;BME280;60008;50.826;6.896;2023-05-25T11:46:18;101959.81;;;20.54;88.26
72959;BME280;60008;50.826;6.896;2023-05-25T11:49:09;101961.78;;;19.60;92.20
72959;BME280;60008;50.826;6.896;2023-05-25T11:52:04;101968.44;;;18.99;98.23
72959;BME280;60008;50.826;6.896;2023-05-25T11:54:59;101956.66;;;19.44;97.95
72959;BME280;60008;50.826;6.896;2023-05-25T11:57:44;101972.22;;;18.38;96.10
72959;BME280;60008;50.826;6.896;2023-05-25T12:00:35;101958.66;;;19.57;94.57
72959;BME280;60008;50.826;6.896;2023-05-25T12:03:30;101951.50;;;19.85;89.38
72959;BME280;60008;50.826;6.896;2023-05-25T12:09:20;101959.13;;;19.46;93.83
72959;BME280;60008;50.826;6.896;2023-05-25T12:12:06;101953.69;;;19.96;90.47
72959;BME280;60008;50.826;6.896;2023-05-25T12:14:58;101968.31;;;19.22;91.04
72959;BME280;60008;50.826;6.896;2023-05-25T12:17:51;101958.44;;;18.64;94.29
72959;BME280;60008;50.826;6.896;2023-05-25T12:20:57;101961.13;;;18.93;93.89
72959;BME280;60008;50.826;6.896;2023-05-25T12:23:42;101948.81;;;19.64;94.00
72959;BME280;60008;50.826;6.896;2023-05-25T12:29:32;101959.91;;;18.81;97.20
72959;BME280;60008;50.826;6.896;2023-05-25T12:32:54;101953.34;;;18.47;100.00
72959;BME280;60008;50.826;6.896;2023-05-25T12:35:47;101956.66;;;18.71;99.24
72959;BME280;60008;50.826;6.896;2023-05-25T12:38:39;101963.59;;;18.66;96.99
72959;BME280;60008;50.826;6.896;2023-05-25T12:41:30;101963.25;;;18.98;97.92
72959;BME280;60008;50.826;6.896;2023-05-25T12:44:23;101967.03;;;18.89;96.44
72959;BME280;60008;50.826;6.896;2023-05-25T12:47:21;101968.88;;;18.36;96.82
72959;BME280;60008;50.826;6.896;2023-05-25T12:50:12;101961.63;;;18.22;100.00
72959;BME280;60008;50.826;6.896;2023-05-25T12:53:03;101959.66;;;18.16;100.00
72959;BME280;60008;50.826;6.896;2023-05-25T12:56:02;101976.78;;;18.90;98.63
72959;BME280;60008;50.826;6.896;2023-05-25T12:58:53;101963.53;;;17.91;100.00
72959;BME280;60008;50.826;6.896;2023-05-25T13:01:39;101959.84;;;18.15;100.00
72959;BME280;60008;50.826;6.896;2023-05-25T13:04:31;101966.78;;;18.47;99.93
72959;BME280;60008;50.826;6.896;2023-05-25T13:07:16;101966.38;;;18.35;97.43
72959;BME280;60008;50.826;6.896;2023-05-25T13:10:08;101960.84;;;18.14;97.79
72959;BME280;60008;50.826;6.896;2023-05-25T13:13:00;101962.75;;;18.05;100.00
72959;BME280;60008;50.826;6.896;2023-05-25T13:15:46;101965.66;;;18.41;95.76
72959;BME280;60008;50.826;6.896;2023-05-25T13:18:38;101962.19;;;18.70;93.62
72959;BME280;60008;50.826;6.896;2023-05-25T13:21:23;101957.00;;;18.54;92.63
72959;BME280;60008;50.826;6.896;2023-05-25T13:24:21;101958.53;;;18.11;93.92
72959;BME280;60008;50.826;6.896;2023-05-25T13:27:12;101957.69;;;18.10;96.12
72959;BME280;60008;50.826;6.896;2023-05-25T13:29:58;101960.91;;;18.43;94.75
72959;BME280;60008;50.826;6.896;2023-05-25T13:32:50;101967.63;;;18.47;94.64
72959;BME280;60008;50.826;6.896;2023-05-25T13:35:35;101967.66;;;17.40;98.04
72959;BME280;60008;50.826;6.896;2023-05-25T13:38:33;101961.19;;;17.65;99.45
72959;BME280;60008;50.826;6.896;2023-05-25T13:41:18;101965.13;;;17.55;95.46
72959;BME280;60008;50.826;6.896;2023-05-25T13:44:10;101962.44;;;17.47;95.12
72959;BME280;60008;50.826;6.896;2023-05-25T13:46:59;101962.38;;;17.63;95.31
72959;BME280;60008;50.826;6.896;2023-05-25T13:49:51;101954.41;;;18.00;92.63
72959;BME280;60008;50.826;6.896;2023-05-25T13:52:42;101955.78;;;18.19;91.37
72959;BME280;60008;50.826;6.896;2023-05-25T13:55:34;101958.16;;;18.36;88.21
72959;BME280;60008;50.826;6.896;2023-05-25T13:58:25;101949.19;;;18.07;90.48
72959;BME280;60008;50.826;6.896;2023-05-25T14:01:11;101964.25;;;18.08;91.04
72959;BME280;60008;50.826;6.896;2023-05-25T14:04:02;101948.81;;;18.10;89.54
72959;BME280;60008;50.826;6.896;2023-05-25T14:06:48;101952.38;;;18.02;89.68
72959;BME280;60008;50.826;6.896;2023-05-25T14:09:40;101951.00;;;17.61;92.99
72959;BME280;60008;50.826;6.896;2023-05-25T14:12:25;101943.94;;;17.91;90.73
72959;BME280;60008;50.826;6.896;2023-05-25T14:15:17;101946.25;;;17.94;93.65
72959;BME280;60008;50.826;6.896;2023-05-25T14:18:09;101950.56;;;17.41;93.24
72959;BME280;60008;50.826;6.896;2023-05-25T14:20:54;101939.91;;;17.64;91.25
72959;BME280;60008;50.826;6.896;2023-05-25T14:23:45;101937.84;;;17.74;90.01
72959;BME280;60008;50.826;6.896;2023-05-25T14:26:36;101941.44;;;17.66;91.13
72959;BME280;60008;50.826;6.896;2023-05-25T14:29:28;101945.94;;;17.66;90.25
72959;BME280;60008;50.826;6.896;2023-05-25T14:32:20;101938.22;;;17.94;92.72
72959;BME280;60008;50.826;6.896;2023-05-25T14:35:05;101945.81;;;18.05;90.19
72959;BME280;60008;50.826;6.896;2023-05-25T14:37:57;101940.19;;;17.77;91.54
72959;BME280;60008;50.826;6.896;2023-05-25T14:40:42;101937.75;;;18.05;91.58
72959;BME280;60008;50.826;6.896;2023-05-25T14:43:33;101935.69;;;18.15;91.36
72959;BME280;60008;50.826;6.896;2023-05-25T14:46:24;101938.22;;;18.31;92.28
72959;BME280;60008;50.826;6.896;2023-05-25T14:49:17;101934.06;;;18.28;90.26
72959;BME280;60008;50.826;6.896;2023-05-25T14:52:02;101942.19;;;17.98;91.35
72959;BME280;60008;50.826;6.896;2023-05-25T14:54:54;101941.44;;;17.58;92.84
72959;BME280;60008;50.826;6.896;2023-05-25T14:57:39;101942.78;;;17.62;91.25
72959;BME280;60008;50.826;6.896;2023-05-25T15:00:31;101938.50;;;17.99;96.59
72959;BME280;60008;50.826;6.896;2023-05-25T15:03:15;101940.06;;;17.93;92.16